Etusivu
METAR-TAF:

METAR-TAF

Lentoasemat :

Ouargla, Algeria

Leveyspiiri: 31-55N, Pituuspiiri: 005-24E, korkeus merenpinnasta: 141 m

Tämänhetkinen sää

Tämä raportti tehtiin 1 tunti ja 1 minuuttia sitten, kello 22.00 UTC
Tuuli 6 kn idästä/koillisesta
Lämpötila 32°C
Kosteus 20%
Ilmanpaine 1014 hPa
Näkyvyys 10 km tai enemmän
ei pilviä alle 1500 m:ssä eikä cumulonimbus-pilviä

METAR: DAUU 052200Z 07006KT CAVOK 32/06 Q1014

Aika: 00:01 (23:01 UTC)

Sääennuste

Tämä raportti tehtiin 3 tuntia ja 1 minuuttia sitten, kello 20.00 UTC
Ennuste voimassa 05. päivästä klo 21 UTC - 06. päivään klo 06 UTC
Tuuli 6 kn idästä
Näkyvyys 10 km tai enemmän
ei pilviä alle 1500 m:ssä eikä cumulonimbus-pilviä

TAF: DAUU 052000Z 0521/0606 08006KT CAVOK

Säähavainnot ja -ennusteet yli 4000 lentoasemalta (METAR- ja TAF-raportit).

Käytössä olevat sääasemat on merkitty karttaan keltaisilla ja punaisilla pisteillä.

Aseta hiiri pisteen päälle nähdäksesi sääaseman nimen.

Klikkaa sitten nähdäksesi säähavainnot ja -ennusteet.

Kartan vaihtaminen: klikkaa mustalla rastilla varustettuja vihreitä pisteitä, niin voit zoomata sisään; viivalla varustettua vihreää pistettä, niin voit zoomata ulos tai vihreitä nuolia, niin pääset viereisille kartoille.


METAR-TAF: